sensor_id;sensor_type;location;lat;lon;timestamp;pressure;altitude;pressure_sealevel;temperature;humidity
53546;BME280;39432;51.902;10.844;2023-04-28T00:02:04;99686.13;;;5.05;100.00
53546;BME280;39432;51.902;10.844;2023-04-28T00:04:34;99696.63;;;5.26;100.00
53546;BME280;39432;51.902;10.844;2023-04-28T00:07:04;99688.03;;;5.54;100.00
53546;BME280;39432;51.902;10.844;2023-04-28T00:09:34;99688.28;;;5.28;100.00
53546;BME280;39432;51.902;10.844;2023-04-28T00:12:06;99683.66;;;5.53;100.00
53546;BME280;39432;51.902;10.844;2023-04-28T00:14:36;99680.03;;;6.70;100.00
53546;BME280;39432;51.902;10.844;2023-04-28T00:17:06;99674.56;;;6.88;100.00
53546;BME280;39432;51.902;10.844;2023-04-28T00:19:36;99671.94;;;6.81;100.00
53546;BME280;39432;51.902;10.844;2023-04-28T00:22:06;99665.78;;;6.44;100.00
53546;BME280;39432;51.902;10.844;2023-04-28T00:24:35;99669.91;;;6.47;100.00
53546;BME280;39432;51.902;10.844;2023-04-28T00:27:10;99655.06;;;6.31;100.00
53546;BME280;39432;51.902;10.844;2023-04-28T00:29:39;99662.34;;;5.57;100.00
53546;BME280;39432;51.902;10.844;2023-04-28T00:32:09;99653.31;;;5.63;100.00
53546;BME280;39432;51.902;10.844;2023-04-28T00:34:39;99646.91;;;5.76;100.00
53546;BME280;39432;51.902;10.844;2023-04-28T00:37:09;99645.72;;;6.08;100.00
53546;BME280;39432;51.902;10.844;2023-04-28T00:39:39;99649.69;;;5.88;100.00
53546;BME280;39432;51.902;10.844;2023-04-28T00:42:15;99654.09;;;5.20;100.00
53546;BME280;39432;51.902;10.844;2023-04-28T00:44:45;99647.47;;;5.60;100.00
53546;BME280;39432;51.902;10.844;2023-04-28T00:47:16;99652.00;;;4.97;100.00
53546;BME280;39432;51.902;10.844;2023-04-28T00:49:47;99639.84;;;5.07;100.00
53546;BME280;39432;51.902;10.844;2023-04-28T00:52:18;99636.19;;;5.63;100.00
53546;BME280;39432;51.902;10.844;2023-04-28T00:54:48;99641.47;;;5.58;100.00
53546;BME280;39432;51.902;10.844;2023-04-28T00:57:21;99632.75;;;5.31;100.00
53546;BME280;39432;51.902;10.844;2023-04-28T00:59:51;99630.34;;;5.41;100.00
53546;BME280;39432;51.902;10.844;2023-04-28T01:02:21;99633.56;;;5.56;100.00
53546;BME280;39432;51.902;10.844;2023-04-28T01:04:51;99625.16;;;5.39;100.00
53546;BME280;39432;51.902;10.844;2023-04-28T01:07:22;99627.81;;;5.21;100.00
53546;BME280;39432;51.902;10.844;2023-04-28T01:09:52;99631.94;;;5.48;100.00
53546;BME280;39432;51.902;10.844;2023-04-28T01:12:29;99625.13;;;4.96;100.00
53546;BME280;39432;51.902;10.844;2023-04-28T01:14:59;99625.06;;;5.27;100.00
53546;BME280;39432;51.902;10.844;2023-04-28T01:17:30;99622.56;;;5.26;100.00
53546;BME280;39432;51.902;10.844;2023-04-28T01:20:00;99613.28;;;5.77;100.00
53546;BME280;39432;51.902;10.844;2023-04-28T01:22:30;99613.72;;;5.55;100.00
53546;BME280;39432;51.902;10.844;2023-04-28T01:25:03;99621.91;;;5.49;100.00
53546;BME280;39432;51.902;10.844;2023-04-28T01:27:33;99614.72;;;5.79;100.00
53546;BME280;39432;51.902;10.844;2023-04-28T01:30:03;99604.75;;;5.12;100.00
53546;BME280;39432;51.902;10.844;2023-04-28T01:32:33;99604.53;;;5.57;100.00
53546;BME280;39432;51.902;10.844;2023-04-28T01:35:04;99598.94;;;5.70;100.00
53546;BME280;39432;51.902;10.844;2023-04-28T01:37:35;99604.69;;;6.17;100.00
53546;BME280;39432;51.902;10.844;2023-04-28T01:40:08;99606.63;;;6.10;100.00
53546;BME280;39432;51.902;10.844;2023-04-28T01:42:38;99595.91;;;5.60;100.00
53546;BME280;39432;51.902;10.844;2023-04-28T01:45:09;99597.88;;;5.71;100.00
53546;BME280;39432;51.902;10.844;2023-04-28T01:47:39;99594.34;;;5.52;100.00
53546;BME280;39432;51.902;10.844;2023-04-28T01:50:09;99585.81;;;5.48;100.00
53546;BME280;39432;51.902;10.844;2023-04-28T01:52:39;99583.41;;;5.59;100.00
53546;BME280;39432;51.902;10.844;2023-04-28T01:55:12;99582.59;;;5.40;100.00
53546;BME280;39432;51.902;10.844;2023-04-28T01:57:42;99590.41;;;5.05;100.00
53546;BME280;39432;51.902;10.844;2023-04-28T02:00:12;99586.44;;;5.07;100.00
53546;BME280;39432;51.902;10.844;2023-04-28T02:02:47;99574.69;;;5.13;100.00
53546;BME280;39432;51.902;10.844;2023-04-28T02:05:17;99570.47;;;4.74;100.00
53546;BME280;39432;51.902;10.844;2023-04-28T02:07:49;99571.78;;;4.90;100.00
53546;BME280;39432;51.902;10.844;2023-04-28T02:10:21;99580.97;;;5.32;100.00
53546;BME280;39432;51.902;10.844;2023-04-28T02:12:51;99575.84;;;5.06;100.00
53546;BME280;39432;51.902;10.844;2023-04-28T02:15:21;99576.13;;;5.16;100.00
53546;BME280;39432;51.902;10.844;2023-04-28T02:17:52;99564.09;;;5.30;100.00
53546;BME280;39432;51.902;10.844;2023-04-28T02:20:22;99571.91;;;5.20;100.00
53546;BME280;39432;51.902;10.844;2023-04-28T02:22:53;99568.16;;;5.21;100.00
53546;BME280;39432;51.902;10.844;2023-04-28T02:25:27;99569.84;;;5.40;100.00
53546;BME280;39432;51.902;10.844;2023-04-28T02:27:56;99566.59;;;5.32;100.00
53546;BME280;39432;51.902;10.844;2023-04-28T02:30:26;99566.41;;;4.83;100.00
53546;BME280;39432;51.902;10.844;2023-04-28T02:32:56;99564.31;;;4.85;100.00
53546;BME280;39432;51.902;10.844;2023-04-28T02:35:26;99562.97;;;4.94;100.00
53546;BME280;39432;51.902;10.844;2023-04-28T02:37:55;99550.97;;;5.27;100.00
53546;BME280;39432;51.902;10.844;2023-04-28T02:40:28;99539.13;;;5.03;100.00
53546;BME280;39432;51.902;10.844;2023-04-28T02:42:57;99533.28;;;5.24;100.00
53546;BME280;39432;51.902;10.844;2023-04-28T02:45:27;99527.94;;;5.18;100.00
53546;BME280;39432;51.902;10.844;2023-04-28T02:47:58;99528.41;;;5.33;100.00
53546;BME280;39432;51.902;10.844;2023-04-28T02:50:29;99522.91;;;5.40;100.00
53546;BME280;39432;51.902;10.844;2023-04-28T02:52:59;99514.00;;;5.14;100.00
53546;BME280;39432;51.902;10.844;2023-04-28T02:55:31;99514.59;;;5.16;100.00
53546;BME280;39432;51.902;10.844;2023-04-28T02:58:01;99514.00;;;5.14;100.00
53546;BME280;39432;51.902;10.844;2023-04-28T03:00:31;99515.59;;;5.22;100.00
53546;BME280;39432;51.902;10.844;2023-04-28T03:03:01;99520.72;;;5.30;100.00
53546;BME280;39432;51.902;10.844;2023-04-28T03:05:31;99503.03;;;4.84;100.00
53546;BME280;39432;51.902;10.844;2023-04-28T03:08:00;99499.31;;;5.22;100.00
53546;BME280;39432;51.902;10.844;2023-04-28T03:10:33;99493.44;;;5.25;100.00
53546;BME280;39432;51.902;10.844;2023-04-28T03:13:03;99493.91;;;4.79;100.00
53546;BME280;39432;51.902;10.844;2023-04-28T03:15:33;99490.66;;;4.70;100.00
53546;BME280;39432;51.902;10.844;2023-04-28T03:18:03;99481.38;;;5.02;100.00
53546;BME280;39432;51.902;10.844;2023-04-28T03:20:33;99478.81;;;4.89;100.00
53546;BME280;39432;51.902;10.844;2023-04-28T03:23:03;99478.09;;;4.75;100.00
53546;BME280;39432;51.902;10.844;2023-04-28T03:25:36;99480.91;;;4.87;100.00
53546;BME280;39432;51.902;10.844;2023-04-28T03:28:06;99476.50;;;4.68;100.00
53546;BME280;39432;51.902;10.844;2023-04-28T03:30:36;99473.22;;;4.84;100.00
53546;BME280;39432;51.902;10.844;2023-04-28T03:33:06;99470.28;;;4.86;100.00
53546;BME280;39432;51.902;10.844;2023-04-28T03:35:38;99468.78;;;4.90;100.00
53546;BME280;39432;51.902;10.844;2023-04-28T03:38:09;99475.59;;;5.17;100.00
53546;BME280;39432;51.902;10.844;2023-04-28T03:40:42;99475.34;;;5.00;100.00
53546;BME280;39432;51.902;10.844;2023-04-28T03:43:37;99466.31;;;5.07;100.00
53546;BME280;39432;51.902;10.844;2023-04-28T03:46:13;99456.72;;;4.86;100.00
53546;BME280;39432;51.902;10.844;2023-04-28T03:48:43;99456.56;;;4.81;100.00
53546;BME280;39432;51.902;10.844;2023-04-28T03:51:14;99458.13;;;4.70;100.00
53546;BME280;39432;51.902;10.844;2023-04-28T03:53:44;99459.59;;;4.47;100.00
53546;BME280;39432;51.902;10.844;2023-04-28T03:56:16;99448.47;;;4.56;100.00
53546;BME280;39432;51.902;10.844;2023-04-28T03:58:46;99457.59;;;4.36;100.00
53546;BME280;39432;51.902;10.844;2023-04-28T04:01:16;99457.44;;;4.56;100.00
53546;BME280;39432;51.902;10.844;2023-04-28T04:03:47;99445.47;;;4.64;100.00
53546;BME280;39432;51.902;10.844;2023-04-28T04:06:17;99453.13;;;4.48;100.00
53546;BME280;39432;51.902;10.844;2023-04-28T04:08:47;99443.91;;;4.31;100.00
53546;BME280;39432;51.902;10.844;2023-04-28T04:11:20;99452.19;;;4.36;100.00
53546;BME280;39432;51.902;10.844;2023-04-28T04:13:50;99450.72;;;4.09;100.00
53546;BME280;39432;51.902;10.844;2023-04-28T04:16:22;99448.75;;;4.47;100.00
53546;BME280;39432;51.902;10.844;2023-04-28T04:18:54;99449.97;;;4.02;100.00
53546;BME280;39432;51.902;10.844;2023-04-28T04:21:33;99454.50;;;4.08;100.00
53546;BME280;39432;51.902;10.844;2023-04-28T04:24:03;99452.94;;;4.43;100.00
53546;BME280;39432;51.902;10.844;2023-04-28T04:26:36;99449.41;;;4.68;100.00
53546;BME280;39432;51.902;10.844;2023-04-28T04:29:22;99454.91;;;4.80;100.00
53546;BME280;39432;51.902;10.844;2023-04-28T04:31:52;99451.09;;;5.24;100.00
53546;BME280;39432;51.902;10.844;2023-04-28T04:34:22;99444.16;;;5.28;100.00
53546;BME280;39432;51.902;10.844;2023-04-28T04:36:52;99446.25;;;5.26;100.00
53546;BME280;39432;51.902;10.844;2023-04-28T04:39:22;99447.88;;;5.64;100.00
53546;BME280;39432;51.902;10.844;2023-04-28T04:41:55;99440.06;;;5.55;100.00
53546;BME280;39432;51.902;10.844;2023-04-28T04:44:39;99439.53;;;5.95;100.00
53546;BME280;39432;51.902;10.844;2023-04-28T04:47:16;99438.16;;;6.04;100.00
53546;BME280;39432;51.902;10.844;2023-04-28T04:49:46;99430.16;;;6.92;100.00
53546;BME280;39432;51.902;10.844;2023-04-28T04:52:17;99425.00;;;7.30;100.00
53546;BME280;39432;51.902;10.844;2023-04-28T04:54:47;99405.66;;;7.55;100.00
53546;BME280;39432;51.902;10.844;2023-04-28T04:57:20;99404.06;;;7.88;100.00
53546;BME280;39432;51.902;10.844;2023-04-28T05:00:19;99395.47;;;7.96;100.00
53546;BME280;39432;51.902;10.844;2023-04-28T05:02:51;99402.47;;;8.21;100.00
53546;BME280;39432;51.902;10.844;2023-04-28T05:05:21;99394.78;;;7.72;100.00
53546;BME280;39432;51.902;10.844;2023-04-28T05:08:14;99397.28;;;7.45;100.00
53546;BME280;39432;51.902;10.844;2023-04-28T05:10:44;99395.78;;;6.74;100.00
53546;BME280;39432;51.902;10.844;2023-04-28T05:13:17;99396.69;;;6.91;100.00
53546;BME280;39432;51.902;10.844;2023-04-28T05:15:51;99386.53;;;6.98;100.00
53546;BME280;39432;51.902;10.844;2023-04-28T05:18:29;99384.41;;;6.89;100.00
53546;BME280;39432;51.902;10.844;2023-04-28T05:20:58;99390.56;;;6.84;100.00
53546;BME280;39432;51.902;10.844;2023-04-28T05:23:28;99388.22;;;6.29;100.00
53546;BME280;39432;51.902;10.844;2023-04-28T05:25:58;99392.72;;;6.47;100.00
53546;BME280;39432;51.902;10.844;2023-04-28T05:28:32;99392.50;;;6.48;100.00
53546;BME280;39432;51.902;10.844;2023-04-28T05:31:03;99388.09;;;6.24;100.00
53546;BME280;39432;51.902;10.844;2023-04-28T05:33:33;99392.75;;;5.93;100.00
53546;BME280;39432;51.902;10.844;2023-04-28T05:36:04;99386.91;;;6.20;100.00
53546;BME280;39432;51.902;10.844;2023-04-28T05:38:34;99383.59;;;6.18;100.00
53546;BME280;39432;51.902;10.844;2023-04-28T05:41:05;99391.06;;;6.22;100.00
53546;BME280;39432;51.902;10.844;2023-04-28T05:43:37;99391.66;;;6.36;100.00
53546;BME280;39432;51.902;10.844;2023-04-28T05:46:07;99381.13;;;6.51;100.00
53546;BME280;39432;51.902;10.844;2023-04-28T05:48:56;99380.19;;;6.69;100.00
53546;BME280;39432;51.902;10.844;2023-04-28T05:51:31;99378.75;;;6.78;100.00
53546;BME280;39432;51.902;10.844;2023-04-28T05:54:01;99372.50;;;6.78;100.00
53546;BME280;39432;51.902;10.844;2023-04-28T05:56:36;99371.75;;;6.94;100.00
53546;BME280;39432;51.902;10.844;2023-04-28T05:59:10;99371.25;;;6.97;100.00
53546;BME280;39432;51.902;10.844;2023-04-28T06:01:40;99377.13;;;7.18;100.00
53546;BME280;39432;51.902;10.844;2023-04-28T06:04:10;99365.91;;;7.14;100.00
53546;BME280;39432;51.902;10.844;2023-04-28T06:06:40;99365.06;;;7.13;100.00
53546;BME280;39432;51.902;10.844;2023-04-28T06:09:10;99365.28;;;7.24;100.00
53546;BME280;39432;51.902;10.844;2023-04-28T06:11:40;99359.47;;;7.32;100.00
53546;BME280;39432;51.902;10.844;2023-04-28T06:14:13;99349.34;;;7.16;100.00
53546;BME280;39432;51.902;10.844;2023-04-28T06:16:43;99357.16;;;7.12;100.00
53546;BME280;39432;51.902;10.844;2023-04-28T06:19:13;99359.06;;;7.40;100.00
53546;BME280;39432;51.902;10.844;2023-04-28T06:21:44;99354.34;;;7.35;100.00
53546;BME280;39432;51.902;10.844;2023-04-28T06:24:16;99348.22;;;7.57;100.00
53546;BME280;39432;51.902;10.844;2023-04-28T06:26:46;99341.34;;;7.37;100.00
53546;BME280;39432;51.902;10.844;2023-04-28T06:29:18;99348.69;;;6.97;100.00
53546;BME280;39432;51.902;10.844;2023-04-28T06:31:50;99351.09;;;7.22;100.00
53546;BME280;39432;51.902;10.844;2023-04-28T06:34:24;99347.72;;;7.43;100.00
53546;BME280;39432;51.902;10.844;2023-04-28T06:36:57;99343.25;;;7.37;100.00
53546;BME280;39432;51.902;10.844;2023-04-28T06:39:27;99346.13;;;7.19;100.00
53546;BME280;39432;51.902;10.844;2023-04-28T06:41:57;99349.66;;;7.31;100.00
53546;BME280;39432;51.902;10.844;2023-04-28T06:44:31;99347.97;;;7.30;100.00
53546;BME280;39432;51.902;10.844;2023-04-28T06:47:02;99340.84;;;7.40;100.00
53546;BME280;39432;51.902;10.844;2023-04-28T06:49:32;99330.63;;;7.31;100.00
53546;BME280;39432;51.902;10.844;2023-04-28T06:52:02;99332.03;;;7.50;100.00
53546;BME280;39432;51.902;10.844;2023-04-28T06:54:33;99316.25;;;7.64;100.00
53546;BME280;39432;51.902;10.844;2023-04-28T06:57:07;99311.25;;;7.44;100.00
53546;BME280;39432;51.902;10.844;2023-04-28T06:59:39;99307.72;;;7.44;100.00
53546;BME280;39432;51.902;10.844;2023-04-28T07:02:10;99294.50;;;7.52;100.00
53546;BME280;39432;51.902;10.844;2023-04-28T07:04:39;99302.72;;;7.86;100.00
53546;BME280;39432;51.902;10.844;2023-04-28T07:07:10;99295.38;;;7.70;100.00
53546;BME280;39432;51.902;10.844;2023-04-28T07:09:39;99301.66;;;7.87;100.00
53546;BME280;39432;51.902;10.844;2023-04-28T07:12:10;99305.19;;;8.21;100.00
53546;BME280;39432;51.902;10.844;2023-04-28T07:14:42;99302.72;;;8.19;100.00
53546;BME280;39432;51.902;10.844;2023-04-28T07:17:12;99307.63;;;8.23;100.00
53546;BME280;39432;51.902;10.844;2023-04-28T07:19:43;99314.75;;;7.90;100.00
53546;BME280;39432;51.902;10.844;2023-04-28T07:22:12;99292.81;;;8.13;100.00
53546;BME280;39432;51.902;10.844;2023-04-28T07:24:42;99309.56;;;8.39;100.00
53546;BME280;39432;51.902;10.844;2023-04-28T07:27:12;99304.16;;;8.44;100.00
53546;BME280;39432;51.902;10.844;2023-04-28T07:29:44;99304.66;;;8.58;100.00
53546;BME280;39432;51.902;10.844;2023-04-28T07:32:14;99300.56;;;8.60;100.00
53546;BME280;39432;51.902;10.844;2023-04-28T07:34:44;99296.69;;;8.56;100.00
53546;BME280;39432;51.902;10.844;2023-04-28T07:37:14;99294.81;;;8.79;100.00
53546;BME280;39432;51.902;10.844;2023-04-28T07:39:43;99291.97;;;8.68;100.00
53546;BME280;39432;51.902;10.844;2023-04-28T07:42:13;99279.84;;;9.03;100.00
53546;BME280;39432;51.902;10.844;2023-04-28T07:44:47;99274.31;;;8.98;100.00
53546;BME280;39432;51.902;10.844;2023-04-28T07:47:17;99278.22;;;9.56;100.00
53546;BME280;39432;51.902;10.844;2023-04-28T07:49:47;99267.69;;;9.43;100.00
53546;BME280;39432;51.902;10.844;2023-04-28T07:52:17;99267.13;;;9.68;100.00
53546;BME280;39432;51.902;10.844;2023-04-28T07:54:46;99287.19;;;9.24;100.00
53546;BME280;39432;51.902;10.844;2023-04-28T07:57:16;99283.00;;;8.95;100.00
53546;BME280;39432;51.902;10.844;2023-04-28T07:59:49;99280.19;;;8.85;100.00
53546;BME280;39432;51.902;10.844;2023-04-28T08:02:19;99269.53;;;9.37;100.00
53546;BME280;39432;51.902;10.844;2023-04-28T08:04:49;99274.19;;;9.37;100.00
53546;BME280;39432;51.902;10.844;2023-04-28T08:07:19;99276.38;;;9.35;100.00
53546;BME280;39432;51.902;10.844;2023-04-28T08:09:50;99287.06;;;9.14;100.00
53546;BME280;39432;51.902;10.844;2023-04-28T08:12:21;99273.84;;;9.06;100.00
53546;BME280;39432;51.902;10.844;2023-04-28T08:14:53;99266.16;;;9.84;100.00
53546;BME280;39432;51.902;10.844;2023-04-28T08:17:23;99265.28;;;9.79;100.00
53546;BME280;39432;51.902;10.844;2023-04-28T08:19:53;99267.88;;;9.63;100.00
53546;BME280;39432;51.902;10.844;2023-04-28T08:22:23;99263.88;;;9.44;100.00
53546;BME280;39432;51.902;10.844;2023-04-28T08:24:53;99270.38;;;10.02;100.00
53546;BME280;39432;51.902;10.844;2023-04-28T08:27:22;99266.38;;;9.83;100.00
53546;BME280;39432;51.902;10.844;2023-04-28T08:29:55;99272.00;;;9.66;100.00
53546;BME280;39432;51.902;10.844;2023-04-28T08:32:25;99271.13;;;9.92;100.00
53546;BME280;39432;51.902;10.844;2023-04-28T08:34:55;99267.31;;;10.31;100.00
53546;BME280;39432;51.902;10.844;2023-04-28T08:37:26;99265.03;;;10.17;100.00
53546;BME280;39432;51.902;10.844;2023-04-28T08:39:56;99276.06;;;9.95;100.00
53546;BME280;39432;51.902;10.844;2023-04-28T08:42:30;99256.97;;;10.38;100.00
53546;BME280;39432;51.902;10.844;2023-04-28T08:45:03;99259.16;;;10.36;100.00
53546;BME280;39432;51.902;10.844;2023-04-28T08:47:35;99257.78;;;10.38;100.00
53546;BME280;39432;51.902;10.844;2023-04-28T08:50:08;99248.09;;;10.68;100.00
53546;BME280;39432;51.902;10.844;2023-04-28T08:52:39;99250.19;;;10.45;100.00
53546;BME280;39432;51.902;10.844;2023-04-28T08:55:10;99258.38;;;11.13;100.00
53546;BME280;39432;51.902;10.844;2023-04-28T08:57:44;99248.88;;;10.58;100.00
53546;BME280;39432;51.902;10.844;2023-04-28T09:00:17;99238.94;;;11.04;100.00
53546;BME280;39432;51.902;10.844;2023-04-28T09:02:47;99247.63;;;10.28;100.00
53546;BME280;39432;51.902;10.844;2023-04-28T09:05:17;99228.84;;;11.51;100.00
53546;BME280;39432;51.902;10.844;2023-04-28T09:07:47;99228.88;;;11.76;100.00
53546;BME280;39432;51.902;10.844;2023-04-28T09:10:19;99238.09;;;11.14;100.00
53546;BME280;39432;51.902;10.844;2023-04-28T09:12:51;99234.13;;;10.69;100.00
53546;BME280;39432;51.902;10.844;2023-04-28T09:15:28;99226.66;;;11.58;100.00
53546;BME280;39432;51.902;10.844;2023-04-28T09:18:00;99236.00;;;11.77;100.00
53546;BME280;39432;51.902;10.844;2023-04-28T09:20:33;99226.09;;;11.41;100.00
53546;BME280;39432;51.902;10.844;2023-04-28T09:23:13;99235.97;;;11.57;100.00
53546;BME280;39432;51.902;10.844;2023-04-28T09:25:59;99236.53;;;11.54;100.00
53546;BME280;39432;51.902;10.844;2023-04-28T09:28:29;99227.47;;;11.28;100.00
53546;BME280;39432;51.902;10.844;2023-04-28T09:31:02;99234.53;;;11.08;100.00
53546;BME280;39432;51.902;10.844;2023-04-28T09:33:32;99231.03;;;11.64;100.00
53546;BME280;39432;51.902;10.844;2023-04-28T09:36:02;99226.09;;;11.35;100.00
53546;BME280;39432;51.902;10.844;2023-04-28T09:38:42;99224.97;;;11.11;100.00
53546;BME280;39432;51.902;10.844;2023-04-28T09:41:12;99227.09;;;10.84;100.00
53546;BME280;39432;51.902;10.844;2023-04-28T09:43:42;99222.50;;;11.25;100.00
53546;BME280;39432;51.902;10.844;2023-04-28T09:46:27;99226.13;;;11.51;100.00
53546;BME280;39432;51.902;10.844;2023-04-28T09:49:00;99218.19;;;11.54;100.00
53546;BME280;39432;51.902;10.844;2023-04-28T09:51:30;99214.88;;;11.63;100.00
53546;BME280;39432;51.902;10.844;2023-04-28T09:54:01;99218.97;;;11.40;100.00
53546;BME280;39432;51.902;10.844;2023-04-28T09:56:32;99226.09;;;11.41;100.00
53546;BME280;39432;51.902;10.844;2023-04-28T09:59:06;99225.44;;;10.77;100.00
53546;BME280;39432;51.902;10.844;2023-04-28T10:01:40;99220.53;;;10.90;100.00
53546;BME280;39432;51.902;10.844;2023-04-28T10:04:10;99218.34;;;10.92;100.00
53546;BME280;39432;51.902;10.844;2023-04-28T10:06:40;99213.69;;;10.92;100.00
53546;BME280;39432;51.902;10.844;2023-04-28T10:09:11;99219.38;;;10.75;100.00
53546;BME280;39432;51.902;10.844;2023-04-28T10:11:42;99215.63;;;10.97;100.00
53546;BME280;39432;51.902;10.844;2023-04-28T10:14:13;99212.56;;;10.78;100.00
53546;BME280;39432;51.902;10.844;2023-04-28T10:16:45;99212.81;;;10.71;100.00
53546;BME280;39432;51.902;10.844;2023-04-28T10:19:17;99205.19;;;10.84;100.00
53546;BME280;39432;51.902;10.844;2023-04-28T10:21:59;99199.81;;;11.34;100.00
53546;BME280;39432;51.902;10.844;2023-04-28T10:24:49;99195.97;;;11.46;100.00
53546;BME280;39432;51.902;10.844;2023-04-28T10:27:28;99191.59;;;11.50;100.00
53546;BME280;39432;51.902;10.844;2023-04-28T10:30:14;99195.69;;;11.63;100.00
53546;BME280;39432;51.902;10.844;2023-04-28T10:35:57;99195.97;;;11.41;100.00
53546;BME280;39432;51.902;10.844;2023-04-28T10:38:27;99192.69;;;11.23;100.00
53546;BME280;39432;51.902;10.844;2023-04-28T10:40:57;99196.25;;;11.29;100.00
53546;BME280;39432;51.902;10.844;2023-04-28T10:43:34;99195.88;;;10.85;100.00
53546;BME280;39432;51.902;10.844;2023-04-28T10:46:06;99192.69;;;11.23;100.00
53546;BME280;39432;51.902;10.844;2023-04-28T10:48:53;99190.47;;;11.05;100.00
53546;BME280;39432;51.902;10.844;2023-04-28T10:51:30;99201.88;;;10.71;100.00
53546;BME280;39432;51.902;10.844;2023-04-28T10:54:07;99186.03;;;10.78;100.00
53546;BME280;39432;51.902;10.844;2023-04-28T10:56:37;99187.72;;;11.15;100.00
53546;BME280;39432;51.902;10.844;2023-04-28T10:59:25;99186.09;;;10.99;100.00
53546;BME280;39432;51.902;10.844;2023-04-28T11:05:19;99184.44;;;11.18;100.00
53546;BME280;39432;51.902;10.844;2023-04-28T11:11:17;99178.97;;;11.59;100.00
53546;BME280;39432;51.902;10.844;2023-04-28T11:13:47;99177.34;;;11.58;100.00
53546;BME280;39432;51.902;10.844;2023-04-28T11:16:20;99178.44;;;11.67;100.00
53546;BME280;39432;51.902;10.844;2023-04-28T11:18:56;99182.84;;;11.27;100.00
53546;BME280;39432;51.902;10.844;2023-04-28T11:21:29;99184.97;;;11.15;100.00
53546;BME280;39432;51.902;10.844;2023-04-28T11:24:00;99186.06;;;11.09;100.00
53546;BME280;39432;51.902;10.844;2023-04-28T11:26:39;99184.94;;;10.85;100.00
53546;BME280;39432;51.902;10.844;2023-04-28T11:29:10;99181.94;;;10.96;100.00
53546;BME280;39432;51.902;10.844;2023-04-28T11:31:47;99190.75;;;11.19;100.00
53546;BME280;39432;51.902;10.844;2023-04-28T11:34:19;99188.28;;;11.43;100.00
53546;BME280;39432;51.902;10.844;2023-04-28T11:36:49;99171.31;;;11.05;100.00
53546;BME280;39432;51.902;10.844;2023-04-28T11:39:25;99172.97;;;11.21;100.00
53546;BME280;39432;51.902;10.844;2023-04-28T11:41:58;99175.13;;;10.94;100.00
53546;BME280;39432;51.902;10.844;2023-04-28T11:44:29;99178.69;;;11.25;100.00
53546;BME280;39432;51.902;10.844;2023-04-28T11:47:00;99174.03;;;11.15;100.00
53546;BME280;39432;51.902;10.844;2023-04-28T11:49:41;99171.59;;;11.34;100.00
53546;BME280;39432;51.902;10.844;2023-04-28T11:52:11;99161.47;;;11.45;100.00
53546;BME280;39432;51.902;10.844;2023-04-28T11:54:42;99159.25;;;11.42;100.00
53546;BME280;39432;51.902;10.844;2023-04-28T11:57:20;99168.03;;;11.90;100.00
53546;BME280;39432;51.902;10.844;2023-04-28T11:59:51;99159.75;;;12.15;100.00
53546;BME280;39432;51.902;10.844;2023-04-28T12:02:24;99154.50;;;12.19;100.00
53546;BME280;39432;51.902;10.844;2023-04-28T12:05:04;99147.28;;;12.43;100.00
53546;BME280;39432;51.902;10.844;2023-04-28T12:07:39;99147.34;;;12.82;100.00
53546;BME280;39432;51.902;10.844;2023-04-28T12:10:11;99146.63;;;12.66;100.00
53546;BME280;39432;51.902;10.844;2023-04-28T12:12:44;99137.31;;;12.62;100.00
53546;BME280;39432;51.902;10.844;2023-04-28T12:15:19;99134.91;;;12.46;100.00
53546;BME280;39432;51.902;10.844;2023-04-28T12:17:51;99139.28;;;12.52;100.00
53546;BME280;39432;51.902;10.844;2023-04-28T12:20:34;99138.34;;;13.21;100.00
53546;BME280;39432;51.902;10.844;2023-04-28T12:23:05;99147.72;;;13.10;100.00
53546;BME280;39432;51.902;10.844;2023-04-28T12:25:44;99137.06;;;12.59;100.00
53546;BME280;39432;51.902;10.844;2023-04-28T12:28:16;99134.56;;;12.62;100.00
53546;BME280;39432;51.902;10.844;2023-04-28T12:30:46;99131.97;;;12.86;100.00
53546;BME280;39432;51.902;10.844;2023-04-28T12:33:23;99122.56;;;12.98;100.00
53546;BME280;39432;51.902;10.844;2023-04-28T12:35:54;99120.13;;;12.42;100.00
53546;BME280;39432;51.902;10.844;2023-04-28T12:38:25;99122.72;;;12.12;100.00
53546;BME280;39432;51.902;10.844;2023-04-28T12:40:55;99128.53;;;11.96;100.00
53546;BME280;39432;51.902;10.844;2023-04-28T12:43:28;99130.75;;;11.78;100.00
53546;BME280;39432;51.902;10.844;2023-04-28T12:45:59;99134.81;;;11.96;100.00
53546;BME280;39432;51.902;10.844;2023-04-28T12:48:30;99136.69;;;12.21;100.00
53546;BME280;39432;51.902;10.844;2023-04-28T12:51:01;99135.16;;;12.99;100.00
53546;BME280;39432;51.902;10.844;2023-04-28T12:53:30;99128.25;;;12.62;100.00
53546;BME280;39432;51.902;10.844;2023-04-28T12:56:00;99120.00;;;12.62;100.00
53546;BME280;39432;51.902;10.844;2023-04-28T12:58:32;99116.41;;;13.11;100.00
53546;BME280;39432;51.902;10.844;2023-04-28T13:01:03;99110.84;;;13.21;100.00
53546;BME280;39432;51.902;10.844;2023-04-28T13:03:32;99120.53;;;12.69;100.00
53546;BME280;39432;51.902;10.844;2023-04-28T13:06:05;99119.00;;;12.48;100.00
53546;BME280;39432;51.902;10.844;2023-04-28T13:08:36;99122.78;;;12.57;100.00
53546;BME280;39432;51.902;10.844;2023-04-28T13:11:06;99122.94;;;12.26;100.00
53546;BME280;39432;51.902;10.844;2023-04-28T13:13:50;99121.34;;;12.20;100.00
53546;BME280;39432;51.902;10.844;2023-04-28T13:16:22;99137.03;;;11.99;100.00
53546;BME280;39432;51.902;10.844;2023-04-28T13:18:55;99130.75;;;11.89;100.00
53546;BME280;39432;51.902;10.844;2023-04-28T13:21:25;99134.31;;;11.84;100.00